Terminal Aerodrome Forecast
Issued by NWS Indianapolis, IN

Home | Current Version | Previous Version | Text Only | Print | Product List | Glossary On
Versions: 1 2 3 4 5 6 7 8 9 10 11 12 13 14 15 16 17 18 19 20 21 22 23 24 25 26 27 28 29 30 31 32
000
FTUS43 KIND 010210 AAA
TAFIND
TAF AMD
KIND 010210Z 0102/0206 15013KT P6SM BKN080 WS020/18045KT
     FM010400 17015G23KT P6SM SHRA VCTS OVC020CB
     FM010800 21013G21KT P6SM VCSH BKN060
     FM011000 21013KT P6SM SCT150
     FM011800 22020G31KT P6SM BKN050
     FM012100 23020G31KT P6SM OVC025=

USA.gov is the U.S. government's official web portal to all federal, state and local government web resources and services.